Time;durP1;ratioP1;P1;durP2;ratioP2;P2;SDS_P1;SDS_P2;PMS_P1;PMS_P2;Temp;Humidity;BMP_temperature;BMP_pressure;BME280_temperature;BME280_humidity;BME280_pressure;Samples;Min_cycle;Max_cycle;Signal;HPM_P1;HPM_P2
2022/04/16 00:00:09;;;;;;;;;;;15.20;58.80;;;;;;5016775;28;19965;-79
2022/04/16 00:02:38;;;;;;;;;;;15.10;58.90;;;;;;5020194;28;20456;-79
2022/04/16 00:05:04;;;;;;;;;;;15.00;59.00;;;;;;5021339;28;19954;-79
2022/04/16 00:07:31;;;;;;;;;;;15.00;59.10;;;;;;5021463;28;19929;-79
2022/04/16 00:09:58;;;;;;;;;;;15.00;59.20;;;;;;5017032;28;20450;-79
2022/04/16 00:12:24;;;;;;;;;;;14.90;59.40;;;;;;5019330;28;19925;-80
2022/04/16 00:14:52;;;;;;;;;;;14.90;59.30;;;;;;5018055;28;19933;-79
2022/04/16 00:17:19;;;;;;;;;;;14.80;59.50;;;;;;5019357;28;19956;-79
2022/04/16 00:19:45;;;;;;;;;;;14.80;59.60;;;;;;5019448;28;20839;-79
2022/04/16 00:22:12;;;;;;;;;;;14.80;59.60;;;;;;5017311;28;19935;-80
2022/04/16 00:24:39;;;;;;;;;;;14.70;59.70;;;;;;5024143;28;19928;-79
2022/04/16 00:27:07;;;;;;;;;;;14.60;59.80;;;;;;5017028;28;19936;-80
2022/04/16 00:29:34;;;;;;;;;;;14.70;59.90;;;;;;5019697;28;19929;-80
2022/04/16 00:32:04;;;;;;;;;;;14.60;59.80;;;;;;5017493;28;20337;-79
2022/04/16 00:34:31;;;;;;;;;;;14.50;59.90;;;;;;5019438;28;19936;-80
2022/04/16 00:36:58;;;;;;;;;;;14.50;60.00;;;;;;5020245;28;19944;-80
2022/04/16 00:39:24;;;;;;;;;;;14.50;60.30;;;;;;5014746;28;19925;-79
2022/04/16 00:41:51;;;;;;;;;;;14.40;60.30;;;;;;5021372;28;20294;-80
2022/04/16 00:44:19;;;;;;;;;;;14.40;60.40;;;;;;5018916;28;20020;-79
2022/04/16 00:46:45;;;;;;;;;;;14.40;60.40;;;;;;5019236;28;19929;-79
2022/04/16 00:49:13;;;;;;;;;;;14.40;60.50;;;;;;5020386;28;19978;-79
2022/04/16 00:51:40;;;;;;;;;;;14.30;60.60;;;;;;5018955;28;19935;-80
2022/04/16 00:54:07;;;;;;;;;;;14.20;60.60;;;;;;5019716;28;20313;-79
2022/04/16 00:56:33;;;;;;;;;;;14.20;60.70;;;;;;5023231;28;19929;-79
2022/04/16 00:59:02;;;;;;;;;;;14.20;60.80;;;;;;5017298;28;19929;-79
2022/04/16 01:01:28;;;;;;;;;;;14.10;60.70;;;;;;5017261;28;19937;-80
2022/04/16 01:03:55;;;;;;;;;;;14.00;60.90;;;;;;5020948;28;19950;-81
2022/04/16 01:06:23;;;;;;;;;;;14.10;61.10;;;;;;5018037;28;20515;-80
2022/04/16 01:08:49;;;;;;;;;;;14.00;61.10;;;;;;5018446;28;19975;-79
2022/04/16 01:11:16;;;;;;;;;;;14.00;61.30;;;;;;5020699;28;19940;-79
2022/04/16 01:13:45;;;;;;;;;;;13.90;61.30;;;;;;5015831;28;19933;-79
2022/04/16 01:16:12;;;;;;;;;;;13.90;61.40;;;;;;5019072;28;19940;-79
2022/04/16 01:18:45;;;;;;;;;;;13.80;61.40;;;;;;5016054;28;19929;-79
2022/04/16 01:21:12;;;;;;;;;;;13.80;61.30;;;;;;5016703;28;19933;-80
2022/04/16 01:23:40;;;;;;;;;;;13.80;61.40;;;;;;5018473;28;19933;-79
2022/04/16 01:26:07;;;;;;;;;;;13.80;61.70;;;;;;5017822;28;20011;-79
2022/04/16 01:28:35;;;;;;;;;;;13.70;61.70;;;;;;5024612;28;20960;-79
2022/04/16 01:31:01;;;;;;;;;;;13.70;61.80;;;;;;5018594;28;19936;-80
2022/04/16 01:33:30;;;;;;;;;;;13.60;61.80;;;;;;5018721;28;19933;-78
2022/04/16 01:35:56;;;;;;;;;;;13.60;61.90;;;;;;5017430;28;20588;-79
2022/04/16 01:38:25;;;;;;;;;;;13.50;61.80;;;;;;5021138;28;19932;-79
2022/04/16 01:40:54;;;;;;;;;;;13.50;61.80;;;;;;5022330;28;19999;-79
2022/04/16 01:43:21;;;;;;;;;;;13.40;61.70;;;;;;5021623;28;19936;-80
2022/04/16 01:45:49;;;;;;;;;;;13.40;62.00;;;;;;5019545;28;19940;-80
2022/04/16 01:48:16;;;;;;;;;;;13.40;62.10;;;;;;5020593;28;19929;-80
2022/04/16 01:50:43;;;;;;;;;;;13.30;62.10;;;;;;5019306;28;19928;-80
2022/04/16 01:53:09;;;;;;;;;;;13.30;62.10;;;;;;5019140;28;20039;-80
2022/04/16 01:55:36;;;;;;;;;;;13.30;62.10;;;;;;5024706;28;19929;-79
2022/04/16 01:58:06;;;;;;;;;;;13.20;62.20;;;;;;5018408;28;19933;-79
2022/04/16 02:00:33;;;;;;;;;;;13.20;62.30;;;;;;5015404;28;19933;-79
2022/04/16 02:06:02;;;;;;;;;;;13.10;62.50;;;;;;5014189;28;19971;-80
2022/04/16 02:08:29;;;;;;;;;;;13.00;62.50;;;;;;5019218;28;19929;-79
2022/04/16 02:10:55;;;;;;;;;;;13.10;62.70;;;;;;5026263;28;20006;-78
2022/04/16 02:13:23;;;;;;;;;;;13.00;62.80;;;;;;5025379;28;19929;-80
2022/04/16 02:15:50;;;;;;;;;;;13.00;62.80;;;;;;5022643;28;19987;-78
2022/04/16 02:18:16;;;;;;;;;;;12.90;62.90;;;;;;5026155;28;19971;-79
2022/04/16 02:20:44;;;;;;;;;;;12.90;63.00;;;;;;5019451;28;20726;-78
2022/04/16 02:23:11;;;;;;;;;;;12.90;63.10;;;;;;5023836;28;19941;-79
2022/04/16 02:25:41;;;;;;;;;;;12.90;63.20;;;;;;5023204;28;19945;-80
2022/04/16 02:28:08;;;;;;;;;;;12.80;63.20;;;;;;5027924;28;19940;-79
2022/04/16 02:30:37;;;;;;;;;;;12.80;63.30;;;;;;5025586;28;19933;-79
2022/04/16 02:33:06;;;;;;;;;;;12.80;63.40;;;;;;5025424;28;20037;-79
2022/04/16 02:35:33;;;;;;;;;;;12.70;63.40;;;;;;5026383;28;19929;-79
2022/04/16 02:37:59;;;;;;;;;;;12.70;63.40;;;;;;5026416;28;20014;-79
2022/04/16 02:40:27;;;;;;;;;;;12.60;63.40;;;;;;5031113;28;19986;-79
2022/04/16 02:42:53;;;;;;;;;;;12.60;63.60;;;;;;5025130;28;19933;-80
2022/04/16 02:48:07;;;;;;;;;;;12.50;63.60;;;;;;5024688;28;19936;-79
2022/04/16 02:50:33;;;;;;;;;;;12.50;63.70;;;;;;5021519;28;20034;-79
2022/04/16 02:53:00;;;;;;;;;;;12.40;63.70;;;;;;5026151;28;19952;-79
2022/04/16 02:55:27;;;;;;;;;;;12.40;63.80;;;;;;5027900;28;19941;-80
2022/04/16 02:57:54;;;;;;;;;;;12.40;63.90;;;;;;5023265;28;19939;-80
2022/04/16 03:00:20;;;;;;;;;;;12.30;63.90;;;;;;5020523;28;20828;-79
2022/04/16 03:02:47;;;;;;;;;;;12.30;64.00;;;;;;5021059;28;20355;-80
2022/04/16 03:05:15;;;;;;;;;;;12.30;64.00;;;;;;5023671;28;20730;-80
2022/04/16 03:07:42;;;;;;;;;;;12.30;64.20;;;;;;5022536;28;20544;-80
2022/04/16 03:10:09;;;;;;;;;;;12.30;64.20;;;;;;5021742;28;19968;-80
2022/04/16 03:12:43;;;;;;;;;;;12.20;64.20;;;;;;5021764;28;19999;-79
2022/04/16 03:17:54;;;;;;;;;;;12.10;64.30;;;;;;5021854;28;19928;-80
2022/04/16 03:20:23;;;;;;;;;;;12.10;64.30;;;;;;5021928;28;19933;-79
2022/04/16 03:22:49;;;;;;;;;;;12.10;64.50;;;;;;5019357;28;19963;-80
2022/04/16 03:25:16;;;;;;;;;;;12.00;64.40;;;;;;5024607;28;19933;-79
2022/04/16 03:27:42;;;;;;;;;;;12.00;64.40;;;;;;5019820;28;19983;-80
2022/04/16 03:30:10;;;;;;;;;;;12.00;64.50;;;;;;5019162;28;19944;-79
2022/04/16 03:32:38;;;;;;;;;;;11.90;64.50;;;;;;5017159;28;19929;-79
2022/04/16 03:35:05;;;;;;;;;;;11.80;64.50;;;;;;5024792;28;19929;-79
2022/04/16 03:37:33;;;;;;;;;;;11.90;64.60;;;;;;5018462;28;19929;-80
2022/04/16 03:40:00;;;;;;;;;;;11.80;64.50;;;;;;5024365;28;20624;-80
2022/04/16 03:42:26;;;;;;;;;;;11.80;64.80;;;;;;5024242;28;19936;-79
2022/04/16 03:44:53;;;;;;;;;;;11.80;64.80;;;;;;5020623;28;20904;-79
2022/04/16 03:47:19;;;;;;;;;;;11.70;64.80;;;;;;5017649;28;19933;-79
2022/04/16 03:49:46;;;;;;;;;;;11.70;64.80;;;;;;5026001;28;19932;-79
2022/04/16 03:52:12;;;;;;;;;;;11.70;64.80;;;;;;5015741;28;20598;-79
2022/04/16 04:00:11;;;;;;;;;;;11.60;65.10;;;;;;5021548;28;19979;-80
2022/04/16 04:02:38;;;;;;;;;;;11.50;65.20;;;;;;5023694;28;19929;-80
2022/04/16 04:05:06;;;;;;;;;;;11.50;65.20;;;;;;5018784;28;19939;-80
2022/04/16 04:07:32;;;;;;;;;;;11.40;65.30;;;;;;5019330;28;19979;-79
2022/04/16 04:10:00;;;;;;;;;;;11.40;65.30;;;;;;5027348;28;19941;-79
2022/04/16 04:12:27;;;;;;;;;;;11.40;65.50;;;;;;5014966;28;19976;-80
2022/04/16 04:14:54;;;;;;;;;;;11.40;65.50;;;;;;5018756;28;19936;-79
2022/04/16 04:17:20;;;;;;;;;;;11.40;65.50;;;;;;5016673;28;20259;-78
2022/04/16 04:19:47;;;;;;;;;;;11.30;65.50;;;;;;5015897;28;19930;-77
2022/04/16 04:22:15;;;;;;;;;;;11.30;65.50;;;;;;5009105;28;20016;-79
2022/04/16 04:24:42;;;;;;;;;;;11.20;65.60;;;;;;5019343;28;20515;-80
2022/04/16 04:27:10;;;;;;;;;;;11.20;65.60;;;;;;5021920;28;19933;-79
2022/04/16 04:29:37;;;;;;;;;;;11.20;65.60;;;;;;5021746;28;19983;-79
2022/04/16 04:32:04;;;;;;;;;;;11.20;65.70;;;;;;5019854;28;20100;-79
2022/04/16 04:34:31;;;;;;;;;;;11.10;65.70;;;;;;5021534;28;19936;-80
2022/04/16 04:36:57;;;;;;;;;;;11.10;65.80;;;;;;5014373;28;19936;-80
2022/04/16 04:39:24;;;;;;;;;;;11.10;65.80;;;;;;5024009;28;19976;-80
2022/04/16 04:41:50;;;;;;;;;;;11.10;66.00;;;;;;5020051;28;19929;-79
2022/04/16 04:44:19;;;;;;;;;;;11.00;65.90;;;;;;5021467;28;19929;-79
2022/04/16 04:46:45;;;;;;;;;;;11.00;66.00;;;;;;5019598;28;19998;-79
2022/04/16 04:49:12;;;;;;;;;;;11.00;66.00;;;;;;5024594;28;19932;-79
2022/04/16 04:51:38;;;;;;;;;;;11.00;66.00;;;;;;5012734;28;19991;-79
2022/04/16 04:54:05;;;;;;;;;;;10.90;66.10;;;;;;5024582;28;19968;-80
2022/04/16 04:56:32;;;;;;;;;;;10.90;66.40;;;;;;5023126;28;19929;-79
2022/04/16 04:58:59;;;;;;;;;;;10.80;66.40;;;;;;5022066;28;19982;-80
2022/04/16 05:01:26;;;;;;;;;;;10.80;66.50;;;;;;5018275;28;19925;-79
2022/04/16 05:03:53;;;;;;;;;;;10.80;66.60;;;;;;5017448;28;19940;-79
2022/04/16 05:06:20;;;;;;;;;;;10.80;66.60;;;;;;5017109;28;19929;-79
2022/04/16 05:08:46;;;;;;;;;;;10.80;66.60;;;;;;5017570;28;19925;-79
2022/04/16 05:11:13;;;;;;;;;;;10.80;66.70;;;;;;5023849;28;19929;-79
2022/04/16 05:13:39;;;;;;;;;;;10.70;66.70;;;;;;5020223;28;20642;-79
2022/04/16 05:16:07;;;;;;;;;;;10.70;66.80;;;;;;5018844;28;19984;-79
2022/04/16 05:18:35;;;;;;;;;;;10.70;67.00;;;;;;5015873;28;19952;-79
2022/04/16 05:21:01;;;;;;;;;;;10.70;67.20;;;;;;5019382;28;19978;-79
2022/04/16 05:23:28;;;;;;;;;;;10.60;67.20;;;;;;5019894;28;19933;-79
2022/04/16 05:25:54;;;;;;;;;;;10.70;67.30;;;;;;5018550;28;19967;-79
2022/04/16 05:28:21;;;;;;;;;;;10.60;67.40;;;;;;5019598;28;20422;-79
2022/04/16 05:30:48;;;;;;;;;;;10.70;67.50;;;;;;5019912;28;20349;-79
2022/04/16 05:34:18;;;;;;;;;;;10.60;67.50;;;;;;5019442;28;20368;-79
2022/04/16 05:36:05;;;;;;;;;;;10.60;67.60;;;;;;5018342;28;19947;-79
2022/04/16 05:38:32;;;;;;;;;;;10.60;67.80;;;;;;5018042;28;20176;-80
2022/04/16 05:40:59;;;;;;;;;;;10.60;67.90;;;;;;5019646;28;19937;-79
2022/04/16 05:43:26;;;;;;;;;;;10.60;68.00;;;;;;5017593;28;19930;-80
2022/04/16 05:45:52;;;;;;;;;;;10.60;68.10;;;;;;5014779;28;19929;-80
2022/04/16 05:48:19;;;;;;;;;;;10.50;68.10;;;;;;5016549;28;19933;-79
2022/04/16 05:50:45;;;;;;;;;;;10.60;68.30;;;;;;5016651;28;19941;-79
2022/04/16 05:53:14;;;;;;;;;;;10.60;68.40;;;;;;5017501;28;19936;-79
2022/04/16 05:55:44;;;;;;;;;;;10.60;68.40;;;;;;5022206;28;20389;-80
2022/04/16 05:58:12;;;;;;;;;;;10.60;68.60;;;;;;5014912;28;20367;-79
2022/04/16 06:00:39;;;;;;;;;;;10.60;68.70;;;;;;5016596;28;19995;-79
2022/04/16 06:03:06;;;;;;;;;;;10.60;68.80;;;;;;5018846;28;19951;-79
2022/04/16 06:05:32;;;;;;;;;;;10.60;68.90;;;;;;5018026;28;20635;-79
2022/04/16 06:07:59;;;;;;;;;;;10.60;69.00;;;;;;5018093;28;20548;-79
2022/04/16 06:10:27;;;;;;;;;;;10.60;69.00;;;;;;5019963;28;20083;-80
2022/04/16 06:12:54;;;;;;;;;;;10.60;69.20;;;;;;5019887;28;19933;-80
2022/04/16 06:15:22;;;;;;;;;;;10.60;69.20;;;;;;5020864;28;19941;-80
2022/04/16 06:17:48;;;;;;;;;;;10.50;69.20;;;;;;5017224;28;19996;-80
2022/04/16 06:20:15;;;;;;;;;;;10.60;69.40;;;;;;5015966;28;21130;-79
2022/04/16 06:22:41;;;;;;;;;;;10.60;69.50;;;;;;5018234;28;19991;-79
2022/04/16 06:25:08;;;;;;;;;;;10.60;69.50;;;;;;5019274;28;19929;-79
2022/04/16 06:27:38;;;;;;;;;;;10.60;69.70;;;;;;5019016;28;19937;-79
2022/04/16 06:30:06;;;;;;;;;;;10.60;69.90;;;;;;5015153;28;20637;-79
2022/04/16 06:32:33;;;;;;;;;;;10.60;70.00;;;;;;5018483;28;19929;-80
2022/04/16 06:35:00;;;;;;;;;;;10.50;70.00;;;;;;5020520;28;20319;-79
2022/04/16 06:37:27;;;;;;;;;;;10.60;70.10;;;;;;5018876;28;19928;-78
2022/04/16 06:39:53;;;;;;;;;;;10.50;70.10;;;;;;5010194;28;19995;-79
2022/04/16 06:42:20;;;;;;;;;;;10.60;70.20;;;;;;5017325;28;19991;-79
2022/04/16 06:44:48;;;;;;;;;;;10.60;70.30;;;;;;5017305;28;19929;-79
2022/04/16 06:47:14;;;;;;;;;;;10.60;70.30;;;;;;5014993;28;19933;-79
2022/04/16 06:49:41;;;;;;;;;;;10.60;70.30;;;;;;5015923;28;19940;-78
2022/04/16 06:52:08;;;;;;;;;;;10.60;70.20;;;;;;5013042;28;19930;-79
2022/04/16 06:54:34;;;;;;;;;;;10.60;70.30;;;;;;5016549;28;19996;-79
2022/04/16 06:57:01;;;;;;;;;;;10.60;70.20;;;;;;5018670;28;19991;-79
2022/04/16 06:59:27;;;;;;;;;;;10.60;70.40;;;;;;5012946;28;20027;-79
2022/04/16 07:01:55;;;;;;;;;;;10.60;70.40;;;;;;5016780;28;19929;-79
2022/04/16 07:04:22;;;;;;;;;;;10.60;70.50;;;;;;5018895;28;19928;-79
2022/04/16 07:06:48;;;;;;;;;;;10.60;70.40;;;;;;5013406;28;19932;-79
2022/04/16 07:09:15;;;;;;;;;;;10.60;70.40;;;;;;5016973;28;19937;-79
2022/04/16 07:11:41;;;;;;;;;;;10.70;70.70;;;;;;5023763;28;19928;-79
2022/04/16 07:14:08;;;;;;;;;;;10.70;70.70;;;;;;5022933;28;20696;-79
2022/04/16 07:16:34;;;;;;;;;;;10.70;70.70;;;;;;5018687;28;19929;-79
2022/04/16 07:19:02;;;;;;;;;;;10.70;70.70;;;;;;5019671;28;19973;-79
2022/04/16 07:21:29;;;;;;;;;;;10.70;70.80;;;;;;5015564;28;19940;-79
2022/04/16 07:23:55;;;;;;;;;;;10.70;70.70;;;;;;5019741;28;19929;-79
2022/04/16 07:26:22;;;;;;;;;;;10.70;70.90;;;;;;5018545;28;19929;-79
2022/04/16 07:28:48;;;;;;;;;;;10.80;71.10;;;;;;5018912;28;19933;-79
2022/04/16 07:31:15;;;;;;;;;;;10.70;71.10;;;;;;5015813;28;19935;-79
2022/04/16 07:33:41;;;;;;;;;;;10.80;71.20;;;;;;5017478;28;20290;-80
2022/04/16 07:36:09;;;;;;;;;;;10.80;71.20;;;;;;5015636;28;19929;-79
2022/04/16 07:38:36;;;;;;;;;;;10.80;71.30;;;;;;5018474;28;19952;-79
2022/04/16 07:41:03;;;;;;;;;;;10.80;71.50;;;;;;5022907;28;20627;-80
2022/04/16 07:43:30;;;;;;;;;;;10.80;71.60;;;;;;5021515;28;20443;-79
2022/04/16 07:45:56;;;;;;;;;;;10.80;71.60;;;;;;5017229;28;19933;-80
2022/04/16 07:48:24;;;;;;;;;;;10.90;71.70;;;;;;5014970;28;19929;-80
2022/04/16 07:50:50;;;;;;;;;;;10.90;71.60;;;;;;5017759;28;19933;-79
2022/04/16 07:53:18;;;;;;;;;;;10.90;71.60;;;;;;5020619;28;20023;-80
2022/04/16 07:55:45;;;;;;;;;;;10.90;71.50;;;;;;5022197;28;19936;-79
2022/04/16 07:58:11;;;;;;;;;;;10.90;71.40;;;;;;5020404;28;19959;-79
2022/04/16 08:00:38;;;;;;;;;;;10.90;71.40;;;;;;5016637;28;19933;-79
2022/04/16 08:03:04;;;;;;;;;;;10.90;71.30;;;;;;5018774;28;19936;-79
2022/04/16 08:05:31;;;;;;;;;;;11.00;71.40;;;;;;5021937;28;19990;-79
2022/04/16 08:07:57;;;;;;;;;;;10.90;71.30;;;;;;5013853;28;20647;-79
2022/04/16 08:10:26;;;;;;;;;;;11.00;71.40;;;;;;5019080;28;19932;-79
2022/04/16 08:12:52;;;;;;;;;;;11.00;71.30;;;;;;5020185;28;20384;-79
2022/04/16 08:15:19;;;;;;;;;;;11.00;71.20;;;;;;5019836;28;19929;-79
2022/04/16 08:17:45;;;;;;;;;;;11.00;71.10;;;;;;5016674;28;19944;-79
2022/04/16 08:20:12;;;;;;;;;;;11.00;71.10;;;;;;5021202;28;20324;-79
2022/04/16 08:22:46;;;;;;;;;;;11.00;71.00;;;;;;5013920;28;19994;-79
2022/04/16 08:27:58;;;;;;;;;;;11.10;71.10;;;;;;5018208;28;19987;-79
2022/04/16 08:30:24;;;;;;;;;;;11.10;71.10;;;;;;5019756;28;19936;-79
2022/04/16 08:32:51;;;;;;;;;;;11.10;71.00;;;;;;5019832;28;19929;-79
2022/04/16 08:35:19;;;;;;;;;;;11.10;71.00;;;;;;5015769;28;19933;-79
2022/04/16 08:37:46;;;;;;;;;;;11.20;71.00;;;;;;5020382;28;19928;-79
2022/04/16 08:40:13;;;;;;;;;;;11.20;71.00;;;;;;5023925;28;19933;-79
2022/04/16 08:42:41;;;;;;;;;;;11.20;70.90;;;;;;5023415;28;19968;-80
2022/04/16 08:45:10;;;;;;;;;;;11.20;71.00;;;;;;5021948;28;19929;-79
2022/04/16 08:47:38;;;;;;;;;;;11.30;70.90;;;;;;5016265;28;20405;-78
2022/04/16 08:50:05;;;;;;;;;;;11.40;70.90;;;;;;5023043;28;19933;-79
2022/04/16 08:52:33;;;;;;;;;;;11.30;70.60;;;;;;5022791;28;19933;-79
2022/04/16 08:55:00;;;;;;;;;;;11.40;70.40;;;;;;5029853;28;19952;-80
2022/04/16 08:57:27;;;;;;;;;;;11.40;70.30;;;;;;5027081;28;20436;-79
2022/04/16 08:59:54;;;;;;;;;;;11.50;70.20;;;;;;5023115;28;20002;-79
2022/04/16 09:02:23;;;;;;;;;;;11.50;69.90;;;;;;5032795;28;20732;-79
2022/04/16 09:04:50;;;;;;;;;;;11.50;69.50;;;;;;5025220;28;19944;-80
2022/04/16 09:07:17;;;;;;;;;;;11.60;69.30;;;;;;5027214;28;19936;-80
2022/04/16 09:09:43;;;;;;;;;;;11.70;69.00;;;;;;5030828;28;20914;-80
2022/04/16 09:12:17;;;;;;;;;;;11.70;68.80;;;;;;5028707;28;19937;-79
2022/04/16 09:14:45;;;;;;;;;;;11.70;68.50;;;;;;5025644;28;21259;-79
2022/04/16 09:17:15;;;;;;;;;;;11.70;68.40;;;;;;5023008;28;19940;-79
2022/04/16 09:19:43;;;;;;;;;;;11.80;68.20;;;;;;5020440;28;20397;-80
2022/04/16 09:22:10;;;;;;;;;;;11.80;68.10;;;;;;5019948;28;19987;-79
2022/04/16 09:24:46;;;;;;;;;;;11.90;68.20;;;;;;5020579;28;20090;-79
2022/04/16 09:27:12;;;;;;;;;;;11.80;68.10;;;;;;5021747;28;20510;-79
2022/04/16 09:29:40;;;;;;;;;;;11.90;67.90;;;;;;5019120;28;19933;-79
2022/04/16 09:32:07;;;;;;;;;;;11.90;67.70;;;;;;5021480;28;20321;-80
2022/04/16 09:34:34;;;;;;;;;;;11.90;67.60;;;;;;5029749;28;19929;-80
2022/04/16 09:37:13;;;;;;;;;;;12.00;67.60;;;;;;5017951;28;20411;-79
2022/04/16 09:39:40;;;;;;;;;;;12.00;67.40;;;;;;5029547;28;20001;-79
2022/04/16 09:42:06;;;;;;;;;;;12.00;67.30;;;;;;5019834;28;19929;-80
2022/04/16 09:44:33;;;;;;;;;;;12.00;67.10;;;;;;5019358;28;19956;-79
2022/04/16 09:46:59;;;;;;;;;;;12.10;67.10;;;;;;5022291;28;20444;-79
2022/04/16 09:49:26;;;;;;;;;;;12.10;66.90;;;;;;5018885;28;20758;-78
2022/04/16 09:51:53;;;;;;;;;;;12.10;66.60;;;;;;5016389;28;20324;-80
2022/04/16 09:54:21;;;;;;;;;;;12.20;66.50;;;;;;5030087;28;19929;-79
2022/04/16 09:56:48;;;;;;;;;;;12.20;66.40;;;;;;5022422;28;20348;-79
2022/04/16 09:59:15;;;;;;;;;;;12.30;66.10;;;;;;5019103;28;20002;-79
2022/04/16 10:01:47;;;;;;;;;;;12.30;66.10;;;;;;5021978;28;19929;-79
2022/04/16 10:04:15;;;;;;;;;;;12.30;66.10;;;;;;5018346;28;20011;-79
2022/04/16 10:06:42;;;;;;;;;;;12.40;65.90;;;;;;5017345;28;19928;-78
2022/04/16 10:09:14;;;;;;;;;;;12.50;65.50;;;;;;5022505;28;19929;-78
2022/04/16 10:12:59;;;;;;;;;;;12.50;65.30;;;;;;5018779;28;20460;-79
2022/04/16 10:14:42;;;;;;;;;;;12.60;65.30;;;;;;5019267;28;19940;-79
2022/04/16 10:17:15;;;;;;;;;;;12.60;65.00;;;;;;5019482;28;19929;-79
2022/04/16 10:19:46;;;;;;;;;;;12.70;64.60;;;;;;5025190;28;19929;-79
2022/04/16 10:22:21;;;;;;;;;;;12.70;64.40;;;;;;5015526;28;19956;-78
2022/04/16 10:24:48;;;;;;;;;;;12.80;64.20;;;;;;5018870;28;22219;-79
2022/04/16 10:27:22;;;;;;;;;;;12.80;64.00;;;;;;5012337;28;19971;-78
2022/04/16 10:29:49;;;;;;;;;;;12.90;64.00;;;;;;5018832;28;20341;-79
2022/04/16 10:32:16;;;;;;;;;;;13.00;64.00;;;;;;5022227;28;19960;-79
2022/04/16 10:34:43;;;;;;;;;;;13.00;63.80;;;;;;5022026;28;19969;-79
2022/04/16 10:37:20;;;;;;;;;;;13.10;63.70;;;;;;5015640;28;20678;-79
2022/04/16 10:39:47;;;;;;;;;;;13.10;63.50;;;;;;5018486;28;19928;-79
2022/04/16 10:42:14;;;;;;;;;;;13.20;63.80;;;;;;5017575;28;20016;-79
2022/04/16 10:44:45;;;;;;;;;;;13.20;63.90;;;;;;5016208;28;19937;-80
2022/04/16 10:47:13;;;;;;;;;;;13.30;63.80;;;;;;5015192;28;20837;-79
2022/04/16 10:49:40;;;;;;;;;;;13.30;63.30;;;;;;5018574;28;19929;-79
2022/04/16 10:52:18;;;;;;;;;;;13.40;63.00;;;;;;5016691;28;19929;-79
2022/04/16 10:54:47;;;;;;;;;;;13.50;63.00;;;;;;5016466;28;19939;-80
2022/04/16 10:57:20;;;;;;;;;;;13.50;63.00;;;;;;5022290;28;20051;-80
2022/04/16 10:59:48;;;;;;;;;;;13.50;63.10;;;;;;5018228;28;19936;-79
2022/04/16 11:02:20;;;;;;;;;;;13.50;62.70;;;;;;5022801;28;19933;-79
2022/04/16 11:04:57;;;;;;;;;;;13.50;62.50;;;;;;5022184;28;20608;-79
2022/04/16 11:07:24;;;;;;;;;;;13.50;62.40;;;;;;5021990;28;21007;-79
2022/04/16 11:09:51;;;;;;;;;;;13.50;62.20;;;;;;5020991;28;20512;-79
2022/04/16 11:12:19;;;;;;;;;;;13.60;62.30;;;;;;5019791;28;19936;-79
2022/04/16 11:14:46;;;;;;;;;;;13.60;61.80;;;;;;5018485;28;19971;-79
2022/04/16 11:17:15;;;;;;;;;;;13.60;61.80;;;;;;5021326;28;19978;-79
2022/04/16 11:19:41;;;;;;;;;;;13.60;61.70;;;;;;5018529;28;19929;-79
2022/04/16 11:22:08;;;;;;;;;;;13.60;61.30;;;;;;5018827;28;20653;-79
2022/04/16 11:24:35;;;;;;;;;;;13.60;61.30;;;;;;5024339;28;19941;-79
2022/04/16 11:35:16;;;;;;;;;;;13.80;60.00;;;;;;5021924;28;20083;-79
2022/04/16 11:37:43;;;;;;;;;;;13.90;59.50;;;;;;5019229;28;19929;-80
2022/04/16 11:40:10;;;;;;;;;;;14.00;59.60;;;;;;5022371;28;19937;-80
2022/04/16 11:42:37;;;;;;;;;;;14.10;59.40;;;;;;5026713;28;20007;-79
2022/04/16 11:45:06;;;;;;;;;;;14.20;59.40;;;;;;5019718;28;20475;-80
2022/04/16 11:47:37;;;;;;;;;;;14.30;59.10;;;;;;5022047;28;19933;-81
2022/04/16 11:50:06;;;;;;;;;;;14.40;59.00;;;;;;5019346;28;19937;-79
2022/04/16 11:52:33;;;;;;;;;;;14.40;58.40;;;;;;5018504;28;19929;-80
2022/04/16 11:55:00;;;;;;;;;;;14.50;58.00;;;;;;5021722;28;19933;-80
2022/04/16 11:57:26;;;;;;;;;;;14.60;57.70;;;;;;5018051;28;19940;-79
2022/04/16 11:59:57;;;;;;;;;;;14.70;57.60;;;;;;5019364;28;19940;-80
2022/04/16 12:02:29;;;;;;;;;;;14.70;57.20;;;;;;5023587;28;19932;-81
2022/04/16 12:05:06;;;;;;;;;;;14.80;56.90;;;;;;5020976;28;19987;-80
2022/04/16 12:07:33;;;;;;;;;;;14.90;57.20;;;;;;5022666;28;19933;-80
2022/04/16 12:10:01;;;;;;;;;;;14.90;56.80;;;;;;5024062;28;20012;-81
2022/04/16 12:12:28;;;;;;;;;;;15.00;56.80;;;;;;5025406;28;19939;-80
2022/04/16 12:14:55;;;;;;;;;;;15.10;56.20;;;;;;5024515;28;20726;-80
2022/04/16 12:17:24;;;;;;;;;;;15.10;56.20;;;;;;5019133;28;20589;-80
2022/04/16 12:20:01;;;;;;;;;;;15.10;56.20;;;;;;5019268;28;20384;-79
2022/04/16 12:22:27;;;;;;;;;;;15.20;56.50;;;;;;5020295;28;19983;-79
2022/04/16 12:24:54;;;;;;;;;;;15.20;56.40;;;;;;5016834;28;19982;-79
2022/04/16 12:27:27;;;;;;;;;;;15.30;56.00;;;;;;5020806;28;19929;-79
2022/04/16 12:29:54;;;;;;;;;;;15.30;55.80;;;;;;5008337;28;20687;-79
2022/04/16 12:32:24;;;;;;;;;;;15.40;55.70;;;;;;5019029;28;19952;-79
2022/04/16 12:34:51;;;;;;;;;;;15.40;55.60;;;;;;5014235;28;19960;-79
2022/04/16 12:37:20;;;;;;;;;;;15.40;55.40;;;;;;5018306;28;20349;-79
2022/04/16 12:39:46;;;;;;;;;;;15.50;55.10;;;;;;5020586;28;19933;-78
2022/04/16 12:42:13;;;;;;;;;;;15.50;55.20;;;;;;5018639;28;19947;-79
2022/04/16 12:44:39;;;;;;;;;;;15.60;55.00;;;;;;5013686;28;20373;-79
2022/04/16 12:47:07;;;;;;;;;;;15.60;54.70;;;;;;5015814;28;19983;-79
2022/04/16 12:49:33;;;;;;;;;;;15.70;55.00;;;;;;5017925;28;19986;-79
2022/04/16 12:52:00;;;;;;;;;;;15.70;54.30;;;;;;5014631;28;19936;-80
2022/04/16 12:54:28;;;;;;;;;;;15.70;53.90;;;;;;5017208;28;19955;-79
2022/04/16 12:56:55;;;;;;;;;;;15.80;53.30;;;;;;5015683;28;19976;-79
2022/04/16 12:59:21;;;;;;;;;;;15.80;53.50;;;;;;5016030;28;20692;-79
2022/04/16 13:01:48;;;;;;;;;;;15.90;53.70;;;;;;5020420;28;19932;-79
2022/04/16 13:04:14;;;;;;;;;;;15.90;53.70;;;;;;5016721;28;19944;-79
2022/04/16 13:06:41;;;;;;;;;;;16.00;53.30;;;;;;5014667;28;19929;-79
2022/04/16 13:09:07;;;;;;;;;;;16.00;53.20;;;;;;5015400;28;20021;-78
2022/04/16 13:11:37;;;;;;;;;;;16.00;52.90;;;;;;5014620;28;19933;-80
2022/04/16 13:14:03;;;;;;;;;;;16.10;52.20;;;;;;5013854;28;20316;-79
2022/04/16 13:16:30;;;;;;;;;;;16.10;51.80;;;;;;5016014;28;19937;-79
2022/04/16 13:18:57;;;;;;;;;;;16.20;51.30;;;;;;5012849;28;19935;-79
2022/04/16 13:21:23;;;;;;;;;;;16.20;52.50;;;;;;5018005;28;20443;-79
2022/04/16 13:23:50;;;;;;;;;;;16.20;52.20;;;;;;5014305;28;20236;-79
2022/04/16 13:26:16;;;;;;;;;;;16.30;51.90;;;;;;5017127;28;19943;-80
2022/04/16 13:28:44;;;;;;;;;;;16.30;52.10;;;;;;5016373;28;20238;-80
2022/04/16 13:31:11;;;;;;;;;;;16.40;48.50;;;;;;5016151;28;19933;-83
2022/04/16 13:33:37;;;;;;;;;;;16.50;47.90;;;;;;5022129;28;19928;-83
2022/04/16 13:36:04;;;;;;;;;;;16.60;49.70;;;;;;5019851;28;19929;-83
2022/04/16 13:38:31;;;;;;;;;;;16.60;49.60;;;;;;5021921;28;19936;-83
2022/04/16 13:43:43;;;;;;;;;;;16.70;49.90;;;;;;5018811;28;19932;-83
2022/04/16 13:46:11;;;;;;;;;;;16.70;49.90;;;;;;5015271;28;19929;-83
2022/04/16 13:48:37;;;;;;;;;;;16.70;49.90;;;;;;5014166;28;19929;-82
2022/04/16 13:51:04;;;;;;;;;;;16.80;50.20;;;;;;5017283;28;19933;-82
2022/04/16 13:53:30;;;;;;;;;;;16.80;50.30;;;;;;5019435;28;19936;-83
2022/04/16 13:55:57;;;;;;;;;;;16.90;49.60;;;;;;5015496;28;19925;-82
2022/04/16 13:58:23;;;;;;;;;;;16.90;48.40;;;;;;5020267;28;19933;-83
2022/04/16 14:00:50;;;;;;;;;;;16.90;48.60;;;;;;5020354;28;19933;-83
2022/04/16 14:03:19;;;;;;;;;;;17.00;49.60;;;;;;5018305;28;19933;-83
2022/04/16 14:05:46;;;;;;;;;;;17.00;49.00;;;;;;5017140;28;19933;-80
2022/04/16 14:08:13;;;;;;;;;;;17.10;48.00;;;;;;5016187;28;19976;-80
2022/04/16 14:10:40;;;;;;;;;;;17.10;48.00;;;;;;5018059;28;20436;-80
2022/04/16 14:13:08;;;;;;;;;;;17.10;47.20;;;;;;5021081;28;19933;-80
2022/04/16 14:15:34;;;;;;;;;;;17.20;46.70;;;;;;5020426;28;20486;-80
2022/04/16 14:18:01;;;;;;;;;;;17.20;47.00;;;;;;5015683;28;19929;-80
2022/04/16 14:20:29;;;;;;;;;;;17.20;47.00;;;;;;5013008;28;19999;-80
2022/04/16 14:22:56;;;;;;;;;;;17.30;46.60;;;;;;5019139;28;19936;-80
2022/04/16 14:25:23;;;;;;;;;;;17.40;46.70;;;;;;5018160;28;19941;-80
2022/04/16 14:27:49;;;;;;;;;;;17.40;45.60;;;;;;5020556;28;20642;-80
2022/04/16 14:30:18;;;;;;;;;;;17.50;45.70;;;;;;5018172;28;19957;-81
2022/04/16 14:32:45;;;;;;;;;;;17.50;45.30;;;;;;5023095;28;19972;-80
2022/04/16 14:35:11;;;;;;;;;;;17.50;46.00;;;;;;5018028;28;19929;-78
2022/04/16 14:37:39;;;;;;;;;;;17.60;45.30;;;;;;5022612;28;19929;-78
2022/04/16 14:40:07;;;;;;;;;;;17.60;44.80;;;;;;5021031;28;20423;-79
2022/04/16 14:42:34;;;;;;;;;;;17.60;44.20;;;;;;5019314;28;19928;-78
2022/04/16 14:45:01;;;;;;;;;;;17.70;44.70;;;;;;5020030;28;19929;-80